sensor_id;sensor_type;location;lat;lon;timestamp;temperature;humidity
34279;DHT22;20538;51.528;9.942;2023-04-06T00:01:47;0.00;99.90
34279;DHT22;20538;51.528;9.942;2023-04-06T00:04:13;0.00;99.90
34279;DHT22;20538;51.528;9.942;2023-04-06T00:06:39;0.10;99.90
34279;DHT22;20538;51.528;9.942;2023-04-06T00:09:04;0.20;99.90
34279;DHT22;20538;51.528;9.942;2023-04-06T00:11:30;0.10;99.90
34279;DHT22;20538;51.528;9.942;2023-04-06T00:13:56;0.10;99.90
34279;DHT22;20538;51.528;9.942;2023-04-06T00:16:21;0.10;99.90
34279;DHT22;20538;51.528;9.942;2023-04-06T00:18:47;0.00;99.90
34279;DHT22;20538;51.528;9.942;2023-04-06T00:21:13;0.00;99.90
34279;DHT22;20538;51.528;9.942;2023-04-06T00:23:40;0.00;99.90
34279;DHT22;20538;51.528;9.942;2023-04-06T00:26:06;0.10;99.90
34279;DHT22;20538;51.528;9.942;2023-04-06T00:28:31;0.00;99.90
34279;DHT22;20538;51.528;9.942;2023-04-06T00:30:57;0.00;99.90
34279;DHT22;20538;51.528;9.942;2023-04-06T00:33:23;0.00;99.90
34279;DHT22;20538;51.528;9.942;2023-04-06T00:35:49;-0.10;99.90
34279;DHT22;20538;51.528;9.942;2023-04-06T00:38:15;-0.10;99.90
34279;DHT22;20538;51.528;9.942;2023-04-06T00:40:42;-0.10;99.90
34279;DHT22;20538;51.528;9.942;2023-04-06T00:43:10;-0.20;99.90
34279;DHT22;20538;51.528;9.942;2023-04-06T00:45:38;-0.20;99.90
34279;DHT22;20538;51.528;9.942;2023-04-06T00:48:04;-0.20;99.90
34279;DHT22;20538;51.528;9.942;2023-04-06T00:50:30;-0.20;99.90
34279;DHT22;20538;51.528;9.942;2023-04-06T00:52:56;-0.20;99.90
34279;DHT22;20538;51.528;9.942;2023-04-06T00:55:22;-0.20;99.90
34279;DHT22;20538;51.528;9.942;2023-04-06T00:57:47;-0.30;99.90
34279;DHT22;20538;51.528;9.942;2023-04-06T01:00:15;-0.30;99.90
34279;DHT22;20538;51.528;9.942;2023-04-06T01:02:41;-0.40;99.90
34279;DHT22;20538;51.528;9.942;2023-04-06T01:05:07;-0.40;99.90
34279;DHT22;20538;51.528;9.942;2023-04-06T01:07:32;-0.40;99.90
34279;DHT22;20538;51.528;9.942;2023-04-06T01:09:58;-0.50;99.90
34279;DHT22;20538;51.528;9.942;2023-04-06T01:12:24;-0.50;99.90
34279;DHT22;20538;51.528;9.942;2023-04-06T01:14:50;-0.60;99.90
34279;DHT22;20538;51.528;9.942;2023-04-06T01:17:16;-0.50;99.90
34279;DHT22;20538;51.528;9.942;2023-04-06T01:19:41;-0.60;99.90
34279;DHT22;20538;51.528;9.942;2023-04-06T01:22:07;-0.60;99.90
34279;DHT22;20538;51.528;9.942;2023-04-06T01:24:33;-0.60;99.90
34279;DHT22;20538;51.528;9.942;2023-04-06T01:26:59;-0.70;99.90
34279;DHT22;20538;51.528;9.942;2023-04-06T01:29:26;-0.70;99.90
34279;DHT22;20538;51.528;9.942;2023-04-06T01:31:52;-0.70;99.90
34279;DHT22;20538;51.528;9.942;2023-04-06T01:34:17;-0.70;99.90
34279;DHT22;20538;51.528;9.942;2023-04-06T01:36:43;-0.80;99.90
34279;DHT22;20538;51.528;9.942;2023-04-06T01:39:09;-0.70;99.90
34279;DHT22;20538;51.528;9.942;2023-04-06T01:41:35;-0.90;99.90
34279;DHT22;20538;51.528;9.942;2023-04-06T01:44:01;-0.90;99.90
34279;DHT22;20538;51.528;9.942;2023-04-06T01:46:27;-0.90;99.90
34279;DHT22;20538;51.528;9.942;2023-04-06T01:48:53;-0.90;99.90
34279;DHT22;20538;51.528;9.942;2023-04-06T01:51:19;-1.00;99.90
34279;DHT22;20538;51.528;9.942;2023-04-06T01:53:44;-0.90;99.90
34279;DHT22;20538;51.528;9.942;2023-04-06T01:56:10;-1.00;99.90
34279;DHT22;20538;51.528;9.942;2023-04-06T01:58:36;-1.00;99.90
34279;DHT22;20538;51.528;9.942;2023-04-06T02:01:02;-1.00;99.90
34279;DHT22;20538;51.528;9.942;2023-04-06T02:03:27;-1.00;99.90
34279;DHT22;20538;51.528;9.942;2023-04-06T02:05:53;-1.00;99.90
34279;DHT22;20538;51.528;9.942;2023-04-06T02:08:19;-1.00;99.90
34279;DHT22;20538;51.528;9.942;2023-04-06T02:10:44;-1.00;99.90
34279;DHT22;20538;51.528;9.942;2023-04-06T02:13:10;-1.10;99.90
34279;DHT22;20538;51.528;9.942;2023-04-06T02:15:36;-1.10;99.90
34279;DHT22;20538;51.528;9.942;2023-04-06T02:18:01;-1.10;99.90
34279;DHT22;20538;51.528;9.942;2023-04-06T02:20:27;-1.10;99.90
34279;DHT22;20538;51.528;9.942;2023-04-06T02:22:53;-1.10;99.90
34279;DHT22;20538;51.528;9.942;2023-04-06T02:25:18;-1.10;99.90
34279;DHT22;20538;51.528;9.942;2023-04-06T02:27:44;-1.10;99.90
34279;DHT22;20538;51.528;9.942;2023-04-06T02:30:10;-1.10;99.90
34279;DHT22;20538;51.528;9.942;2023-04-06T02:32:36;-1.20;99.90
34279;DHT22;20538;51.528;9.942;2023-04-06T02:35:02;-1.20;99.90
34279;DHT22;20538;51.528;9.942;2023-04-06T02:37:28;-1.20;99.90
34279;DHT22;20538;51.528;9.942;2023-04-06T02:39:53;-1.20;99.90
34279;DHT22;20538;51.528;9.942;2023-04-06T02:42:19;-1.20;99.90
34279;DHT22;20538;51.528;9.942;2023-04-06T02:44:45;-1.30;99.90
34279;DHT22;20538;51.528;9.942;2023-04-06T02:47:11;-1.30;99.90
34279;DHT22;20538;51.528;9.942;2023-04-06T02:49:36;-1.30;99.90
34279;DHT22;20538;51.528;9.942;2023-04-06T02:52:02;-1.30;99.90
34279;DHT22;20538;51.528;9.942;2023-04-06T02:54:28;-1.30;99.90
34279;DHT22;20538;51.528;9.942;2023-04-06T02:56:54;-1.20;99.90
34279;DHT22;20538;51.528;9.942;2023-04-06T02:59:20;-1.30;99.90
34279;DHT22;20538;51.528;9.942;2023-04-06T03:01:45;-1.30;99.90
34279;DHT22;20538;51.528;9.942;2023-04-06T03:04:11;-1.30;99.90
34279;DHT22;20538;51.528;9.942;2023-04-06T03:06:37;-1.30;99.90
34279;DHT22;20538;51.528;9.942;2023-04-06T03:09:03;-1.30;99.90
34279;DHT22;20538;51.528;9.942;2023-04-06T03:11:29;-1.30;99.90
34279;DHT22;20538;51.528;9.942;2023-04-06T03:13:54;-1.40;99.90
34279;DHT22;20538;51.528;9.942;2023-04-06T03:16:20;-1.40;99.90
34279;DHT22;20538;51.528;9.942;2023-04-06T03:18:46;-1.50;99.90
34279;DHT22;20538;51.528;9.942;2023-04-06T03:21:15;-1.50;99.90
34279;DHT22;20538;51.528;9.942;2023-04-06T03:23:41;-1.40;99.90
34279;DHT22;20538;51.528;9.942;2023-04-06T03:26:07;-1.40;99.90
34279;DHT22;20538;51.528;9.942;2023-04-06T03:28:33;-1.50;99.90
34279;DHT22;20538;51.528;9.942;2023-04-06T03:30:59;-1.40;99.90
34279;DHT22;20538;51.528;9.942;2023-04-06T03:33:25;-1.50;99.90
34279;DHT22;20538;51.528;9.942;2023-04-06T03:35:54;-1.50;99.90
34279;DHT22;20538;51.528;9.942;2023-04-06T03:38:20;-1.50;99.90
34279;DHT22;20538;51.528;9.942;2023-04-06T03:40:45;-1.40;99.90
34279;DHT22;20538;51.528;9.942;2023-04-06T03:43:11;-1.50;99.90
34279;DHT22;20538;51.528;9.942;2023-04-06T03:45:37;-1.60;99.90
34279;DHT22;20538;51.528;9.942;2023-04-06T03:48:03;-1.60;99.90
34279;DHT22;20538;51.528;9.942;2023-04-06T03:50:29;-1.50;99.90
34279;DHT22;20538;51.528;9.942;2023-04-06T03:52:54;-1.50;99.90
34279;DHT22;20538;51.528;9.942;2023-04-06T03:55:20;-1.50;99.90
34279;DHT22;20538;51.528;9.942;2023-04-06T03:57:46;-1.60;99.90
34279;DHT22;20538;51.528;9.942;2023-04-06T04:00:12;-1.50;99.90
34279;DHT22;20538;51.528;9.942;2023-04-06T04:02:38;-1.60;99.90
34279;DHT22;20538;51.528;9.942;2023-04-06T04:05:05;-1.60;99.90
34279;DHT22;20538;51.528;9.942;2023-04-06T04:07:30;-1.60;99.90
34279;DHT22;20538;51.528;9.942;2023-04-06T04:09:56;-1.70;99.90
34279;DHT22;20538;51.528;9.942;2023-04-06T04:12:22;-1.70;99.90
34279;DHT22;20538;51.528;9.942;2023-04-06T04:14:47;-1.70;99.90
34279;DHT22;20538;51.528;9.942;2023-04-06T04:17:13;-1.80;99.90
34279;DHT22;20538;51.528;9.942;2023-04-06T04:19:39;-1.80;99.90
34279;DHT22;20538;51.528;9.942;2023-04-06T04:22:04;-1.80;99.90
34279;DHT22;20538;51.528;9.942;2023-04-06T04:24:31;-1.80;99.90
34279;DHT22;20538;51.528;9.942;2023-04-06T04:26:57;-1.80;99.90
34279;DHT22;20538;51.528;9.942;2023-04-06T04:29:22;-1.80;99.90
34279;DHT22;20538;51.528;9.942;2023-04-06T04:31:49;-1.80;99.90
34279;DHT22;20538;51.528;9.942;2023-04-06T04:34:15;-1.90;99.90
34279;DHT22;20538;51.528;9.942;2023-04-06T04:36:41;-1.90;99.90
34279;DHT22;20538;51.528;9.942;2023-04-06T04:39:10;-1.90;99.90
34279;DHT22;20538;51.528;9.942;2023-04-06T04:41:35;-1.80;99.90
34279;DHT22;20538;51.528;9.942;2023-04-06T04:44:01;-1.90;99.90
34279;DHT22;20538;51.528;9.942;2023-04-06T04:46:27;-1.90;99.90
34279;DHT22;20538;51.528;9.942;2023-04-06T04:48:52;-1.90;99.90
34279;DHT22;20538;51.528;9.942;2023-04-06T04:51:18;-2.00;99.90
34279;DHT22;20538;51.528;9.942;2023-04-06T04:53:45;-1.90;99.90
34279;DHT22;20538;51.528;9.942;2023-04-06T04:56:10;-1.80;99.90
34279;DHT22;20538;51.528;9.942;2023-04-06T04:58:36;-1.80;99.90
34279;DHT22;20538;51.528;9.942;2023-04-06T05:01:02;-1.80;99.90
34279;DHT22;20538;51.528;9.942;2023-04-06T05:03:28;-1.80;99.90
34279;DHT22;20538;51.528;9.942;2023-04-06T05:05:54;-1.80;99.90
34279;DHT22;20538;51.528;9.942;2023-04-06T05:08:20;-1.80;99.90
34279;DHT22;20538;51.528;9.942;2023-04-06T05:10:46;-1.70;99.90
34279;DHT22;20538;51.528;9.942;2023-04-06T05:13:13;-1.70;99.90
34279;DHT22;20538;51.528;9.942;2023-04-06T05:15:40;-1.60;99.90
34279;DHT22;20538;51.528;9.942;2023-04-06T05:18:09;-1.60;99.90
34279;DHT22;20538;51.528;9.942;2023-04-06T05:20:35;-1.60;99.90
34279;DHT22;20538;51.528;9.942;2023-04-06T05:23:01;-1.60;99.90
34279;DHT22;20538;51.528;9.942;2023-04-06T05:25:27;-1.60;99.90
34279;DHT22;20538;51.528;9.942;2023-04-06T05:27:53;-1.50;99.90
34279;DHT22;20538;51.528;9.942;2023-04-06T05:30:19;-1.40;99.90
34279;DHT22;20538;51.528;9.942;2023-04-06T05:32:45;-1.40;99.90
34279;DHT22;20538;51.528;9.942;2023-04-06T05:35:11;-1.30;99.90
34279;DHT22;20538;51.528;9.942;2023-04-06T05:37:38;-1.20;99.90
34279;DHT22;20538;51.528;9.942;2023-04-06T05:40:04;-1.20;99.90
34279;DHT22;20538;51.528;9.942;2023-04-06T05:42:40;-1.20;99.90
34279;DHT22;20538;51.528;9.942;2023-04-06T05:45:07;-1.20;99.90
34279;DHT22;20538;51.528;9.942;2023-04-06T05:47:32;-0.90;99.90
34279;DHT22;20538;51.528;9.942;2023-04-06T05:49:58;-0.80;99.90
34279;DHT22;20538;51.528;9.942;2023-04-06T05:52:24;-0.70;99.90
34279;DHT22;20538;51.528;9.942;2023-04-06T05:54:50;-0.70;99.90
34279;DHT22;20538;51.528;9.942;2023-04-06T05:57:15;-0.50;99.90
34279;DHT22;20538;51.528;9.942;2023-04-06T05:59:42;-0.50;99.90
34279;DHT22;20538;51.528;9.942;2023-04-06T06:02:08;-0.50;99.90
34279;DHT22;20538;51.528;9.942;2023-04-06T06:04:33;-0.50;99.90
34279;DHT22;20538;51.528;9.942;2023-04-06T06:07:00;-0.40;99.90
34279;DHT22;20538;51.528;9.942;2023-04-06T06:09:26;-0.40;99.90
34279;DHT22;20538;51.528;9.942;2023-04-06T06:11:52;-0.40;99.90
34279;DHT22;20538;51.528;9.942;2023-04-06T06:14:17;-0.30;99.90
34279;DHT22;20538;51.528;9.942;2023-04-06T06:16:43;-0.20;99.90
34279;DHT22;20538;51.528;9.942;2023-04-06T06:19:09;-0.20;99.90
34279;DHT22;20538;51.528;9.942;2023-04-06T06:21:34;-0.10;99.90
34279;DHT22;20538;51.528;9.942;2023-04-06T06:24:00;0.00;99.90
34279;DHT22;20538;51.528;9.942;2023-04-06T06:26:26;0.00;99.90
34279;DHT22;20538;51.528;9.942;2023-04-06T06:28:52;0.20;99.90
34279;DHT22;20538;51.528;9.942;2023-04-06T06:31:17;0.20;99.90
34279;DHT22;20538;51.528;9.942;2023-04-06T06:33:48;0.30;99.90
34279;DHT22;20538;51.528;9.942;2023-04-06T06:36:17;0.50;99.90
34279;DHT22;20538;51.528;9.942;2023-04-06T06:38:43;0.50;99.90
34279;DHT22;20538;51.528;9.942;2023-04-06T06:41:10;0.60;99.90
34279;DHT22;20538;51.528;9.942;2023-04-06T06:43:36;0.70;99.90
34279;DHT22;20538;51.528;9.942;2023-04-06T06:46:02;0.80;99.90
34279;DHT22;20538;51.528;9.942;2023-04-06T06:48:27;0.90;99.90
34279;DHT22;20538;51.528;9.942;2023-04-06T06:50:53;0.90;99.90
34279;DHT22;20538;51.528;9.942;2023-04-06T06:53:19;1.10;99.90
34279;DHT22;20538;51.528;9.942;2023-04-06T06:55:45;1.20;99.90
34279;DHT22;20538;51.528;9.942;2023-04-06T06:58:11;1.20;99.90
34279;DHT22;20538;51.528;9.942;2023-04-06T07:00:37;1.30;99.90
34279;DHT22;20538;51.528;9.942;2023-04-06T07:03:03;1.40;99.90
34279;DHT22;20538;51.528;9.942;2023-04-06T07:05:28;1.50;99.90
34279;DHT22;20538;51.528;9.942;2023-04-06T07:07:55;1.60;99.90
34279;DHT22;20538;51.528;9.942;2023-04-06T07:10:21;1.70;99.90
34279;DHT22;20538;51.528;9.942;2023-04-06T07:12:47;1.90;99.90
34279;DHT22;20538;51.528;9.942;2023-04-06T07:15:12;2.10;99.90
34279;DHT22;20538;51.528;9.942;2023-04-06T07:17:38;2.20;99.90
34279;DHT22;20538;51.528;9.942;2023-04-06T07:20:06;2.30;99.90
34279;DHT22;20538;51.528;9.942;2023-04-06T07:22:32;2.40;99.90
34279;DHT22;20538;51.528;9.942;2023-04-06T07:24:58;2.70;99.90
34279;DHT22;20538;51.528;9.942;2023-04-06T07:27:24;2.70;99.90
34279;DHT22;20538;51.528;9.942;2023-04-06T07:29:50;2.90;99.90
34279;DHT22;20538;51.528;9.942;2023-04-06T07:32:15;3.20;99.90
34279;DHT22;20538;51.528;9.942;2023-04-06T07:34:41;3.30;99.90
34279;DHT22;20538;51.528;9.942;2023-04-06T07:37:07;3.50;99.90
34279;DHT22;20538;51.528;9.942;2023-04-06T07:39:33;3.80;99.90
34279;DHT22;20538;51.528;9.942;2023-04-06T07:41:59;4.00;99.90
34279;DHT22;20538;51.528;9.942;2023-04-06T07:44:25;4.10;99.90
34279;DHT22;20538;51.528;9.942;2023-04-06T07:46:50;4.30;99.90
34279;DHT22;20538;51.528;9.942;2023-04-06T07:49:16;4.40;99.90
34279;DHT22;20538;51.528;9.942;2023-04-06T07:51:42;4.60;99.90
34279;DHT22;20538;51.528;9.942;2023-04-06T07:54:10;4.70;99.90
34279;DHT22;20538;51.528;9.942;2023-04-06T07:56:36;4.80;99.90
34279;DHT22;20538;51.528;9.942;2023-04-06T07:59:02;4.90;99.90
34279;DHT22;20538;51.528;9.942;2023-04-06T08:01:29;5.10;99.90
34279;DHT22;20538;51.528;9.942;2023-04-06T08:03:56;5.30;99.90
34279;DHT22;20538;51.528;9.942;2023-04-06T08:06:22;5.60;99.90
34279;DHT22;20538;51.528;9.942;2023-04-06T08:08:48;5.80;99.90
34279;DHT22;20538;51.528;9.942;2023-04-06T08:11:14;6.00;99.90
34279;DHT22;20538;51.528;9.942;2023-04-06T08:13:39;6.30;99.90
34279;DHT22;20538;51.528;9.942;2023-04-06T08:16:05;6.30;99.90
34279;DHT22;20538;51.528;9.942;2023-04-06T08:18:31;6.50;99.90
34279;DHT22;20538;51.528;9.942;2023-04-06T08:20:57;6.60;99.90
34279;DHT22;20538;51.528;9.942;2023-04-06T08:23:22;6.80;99.90
34279;DHT22;20538;51.528;9.942;2023-04-06T08:25:48;6.80;99.90
34279;DHT22;20538;51.528;9.942;2023-04-06T08:28:14;6.80;99.90
34279;DHT22;20538;51.528;9.942;2023-04-06T08:30:43;7.00;99.90
34279;DHT22;20538;51.528;9.942;2023-04-06T08:33:09;7.20;99.90
34279;DHT22;20538;51.528;9.942;2023-04-06T08:35:35;7.30;99.90
34279;DHT22;20538;51.528;9.942;2023-04-06T08:38:01;7.50;99.90
34279;DHT22;20538;51.528;9.942;2023-04-06T08:40:27;7.60;99.90
34279;DHT22;20538;51.528;9.942;2023-04-06T08:42:55;7.60;99.90
34279;DHT22;20538;51.528;9.942;2023-04-06T08:45:21;7.80;99.90
34279;DHT22;20538;51.528;9.942;2023-04-06T08:47:49;7.80;99.90
34279;DHT22;20538;51.528;9.942;2023-04-06T08:50:17;7.90;99.90
34279;DHT22;20538;51.528;9.942;2023-04-06T08:52:44;7.90;99.90
34279;DHT22;20538;51.528;9.942;2023-04-06T08:55:11;7.90;99.90
34279;DHT22;20538;51.528;9.942;2023-04-06T08:57:38;8.10;99.90
34279;DHT22;20538;51.528;9.942;2023-04-06T09:00:05;8.30;99.90
34279;DHT22;20538;51.528;9.942;2023-04-06T09:02:32;8.40;99.90
34279;DHT22;20538;51.528;9.942;2023-04-06T09:04:58;8.50;99.90
34279;DHT22;20538;51.528;9.942;2023-04-06T09:07:25;8.40;99.90
34279;DHT22;20538;51.528;9.942;2023-04-06T09:09:50;8.50;99.90
34279;DHT22;20538;51.528;9.942;2023-04-06T09:12:27;8.70;99.90
34279;DHT22;20538;51.528;9.942;2023-04-06T09:14:53;8.90;99.90
34279;DHT22;20538;51.528;9.942;2023-04-06T09:17:20;9.10;99.90
34279;DHT22;20538;51.528;9.942;2023-04-06T09:19:47;9.10;99.90
34279;DHT22;20538;51.528;9.942;2023-04-06T09:22:13;9.00;99.90
34279;DHT22;20538;51.528;9.942;2023-04-06T09:24:52;9.20;99.90
34279;DHT22;20538;51.528;9.942;2023-04-06T09:27:34;9.20;99.90
34279;DHT22;20538;51.528;9.942;2023-04-06T09:30:11;9.30;99.90
34279;DHT22;20538;51.528;9.942;2023-04-06T09:32:53;9.30;99.90
34279;DHT22;20538;51.528;9.942;2023-04-06T09:35:23;9.30;99.90
34279;DHT22;20538;51.528;9.942;2023-04-06T09:37:51;9.30;99.90
34279;DHT22;20538;51.528;9.942;2023-04-06T09:40:21;9.40;99.90
34279;DHT22;20538;51.528;9.942;2023-04-06T09:42:49;9.50;99.90
34279;DHT22;20538;51.528;9.942;2023-04-06T09:45:17;9.50;99.90
34279;DHT22;20538;51.528;9.942;2023-04-06T09:47:45;9.80;99.90
34279;DHT22;20538;51.528;9.942;2023-04-06T09:50:12;9.90;99.90
34279;DHT22;20538;51.528;9.942;2023-04-06T09:52:42;9.90;99.90
34279;DHT22;20538;51.528;9.942;2023-04-06T09:55:20;9.90;99.90
34279;DHT22;20538;51.528;9.942;2023-04-06T09:57:57;9.90;99.90
34279;DHT22;20538;51.528;9.942;2023-04-06T10:00:25;10.00;99.90
34279;DHT22;20538;51.528;9.942;2023-04-06T10:05:35;10.20;99.90
34279;DHT22;20538;51.528;9.942;2023-04-06T10:08:06;10.10;99.90
34279;DHT22;20538;51.528;9.942;2023-04-06T10:10:32;10.30;98.70
34279;DHT22;20538;51.528;9.942;2023-04-06T10:12:58;10.30;98.40
34279;DHT22;20538;51.528;9.942;2023-04-06T10:15:25;10.40;97.00
34279;DHT22;20538;51.528;9.942;2023-04-06T10:17:52;10.30;96.40
34279;DHT22;20538;51.528;9.942;2023-04-06T10:20:28;10.40;96.50
34279;DHT22;20538;51.528;9.942;2023-04-06T10:22:59;10.40;95.60
34279;DHT22;20538;51.528;9.942;2023-04-06T10:25:51;10.60;95.50
34279;DHT22;20538;51.528;9.942;2023-04-06T10:28:40;10.80;94.70
34279;DHT22;20538;51.528;9.942;2023-04-06T10:31:42;10.70;94.50
34279;DHT22;20538;51.528;9.942;2023-04-06T10:34:09;10.70;95.20
34279;DHT22;20538;51.528;9.942;2023-04-06T10:36:36;10.70;93.60
34279;DHT22;20538;51.528;9.942;2023-04-06T10:39:04;10.90;94.40
34279;DHT22;20538;51.528;9.942;2023-04-06T10:41:42;10.90;93.30
34279;DHT22;20538;51.528;9.942;2023-04-06T10:44:22;10.90;93.20
34279;DHT22;20538;51.528;9.942;2023-04-06T10:46:56;10.90;93.30
34279;DHT22;20538;51.528;9.942;2023-04-06T10:49:24;10.90;92.80
34279;DHT22;20538;51.528;9.942;2023-04-06T10:51:55;10.80;93.10
34279;DHT22;20538;51.528;9.942;2023-04-06T10:54:26;10.90;94.20
34279;DHT22;20538;51.528;9.942;2023-04-06T10:56:52;11.00;93.70
34279;DHT22;20538;51.528;9.942;2023-04-06T10:59:42;10.90;92.70
34279;DHT22;20538;51.528;9.942;2023-04-06T11:02:19;11.00;92.30
34279;DHT22;20538;51.528;9.942;2023-04-06T11:04:56;11.00;92.80
34279;DHT22;20538;51.528;9.942;2023-04-06T11:07:28;11.10;93.60
34279;DHT22;20538;51.528;9.942;2023-04-06T11:09:56;11.20;93.70
34279;DHT22;20538;51.528;9.942;2023-04-06T11:12:27;11.30;94.60
34279;DHT22;20538;51.528;9.942;2023-04-06T11:15:01;11.40;94.70
34279;DHT22;20538;51.528;9.942;2023-04-06T11:17:35;11.50;94.90
34279;DHT22;20538;51.528;9.942;2023-04-06T11:20:09;11.50;93.70
34279;DHT22;20538;51.528;9.942;2023-04-06T11:22:35;11.40;93.30
34279;DHT22;20538;51.528;9.942;2023-04-06T11:25:06;11.40;93.40
34279;DHT22;20538;51.528;9.942;2023-04-06T11:27:33;11.50;93.30
34279;DHT22;20538;51.528;9.942;2023-04-06T11:30:00;11.40;92.90
34279;DHT22;20538;51.528;9.942;2023-04-06T11:32:27;11.40;92.60
34279;DHT22;20538;51.528;9.942;2023-04-06T11:34:53;11.60;93.30
34279;DHT22;20538;51.528;9.942;2023-04-06T11:37:19;11.50;92.80
34279;DHT22;20538;51.528;9.942;2023-04-06T11:39:52;11.50;92.90
34279;DHT22;20538;51.528;9.942;2023-04-06T11:42:27;11.60;93.00
34279;DHT22;20538;51.528;9.942;2023-04-06T11:44:56;11.70;93.40
34279;DHT22;20538;51.528;9.942;2023-04-06T11:47:38;11.70;93.10
34279;DHT22;20538;51.528;9.942;2023-04-06T11:50:11;11.60;92.40
34279;DHT22;20538;51.528;9.942;2023-04-06T11:52:41;11.70;92.50
34279;DHT22;20538;51.528;9.942;2023-04-06T11:57:38;11.80;93.00
34279;DHT22;20538;51.528;9.942;2023-04-06T12:00:05;11.80;92.70
34279;DHT22;20538;51.528;9.942;2023-04-06T12:02:32;11.80;92.60
34279;DHT22;20538;51.528;9.942;2023-04-06T12:05:03;11.90;92.50
34279;DHT22;20538;51.528;9.942;2023-04-06T12:07:29;12.00;92.80
34279;DHT22;20538;51.528;9.942;2023-04-06T12:09:58;12.10;92.20
34279;DHT22;20538;51.528;9.942;2023-04-06T12:12:25;12.20;92.10
34279;DHT22;20538;51.528;9.942;2023-04-06T12:14:52;12.00;92.30
34279;DHT22;20538;51.528;9.942;2023-04-06T12:17:19;12.00;92.00
34279;DHT22;20538;51.528;9.942;2023-04-06T12:19:45;12.20;91.80
34279;DHT22;20538;51.528;9.942;2023-04-06T12:22:11;12.00;91.50
34279;DHT22;20538;51.528;9.942;2023-04-06T12:24:37;12.00;91.70
34279;DHT22;20538;51.528;9.942;2023-04-06T12:27:03;12.00;91.10
34279;DHT22;20538;51.528;9.942;2023-04-06T12:29:29;12.20;91.50
34279;DHT22;20538;51.528;9.942;2023-04-06T12:31:55;12.30;92.00
34279;DHT22;20538;51.528;9.942;2023-04-06T12:34:20;12.40;91.70
34279;DHT22;20538;51.528;9.942;2023-04-06T12:36:46;12.50;91.10
34279;DHT22;20538;51.528;9.942;2023-04-06T12:39:12;12.60;90.70
34279;DHT22;20538;51.528;9.942;2023-04-06T12:41:37;12.50;90.40
34279;DHT22;20538;51.528;9.942;2023-04-06T12:44:06;12.40;89.70
34279;DHT22;20538;51.528;9.942;2023-04-06T12:46:32;12.40;89.20
34279;DHT22;20538;51.528;9.942;2023-04-06T12:48:58;12.30;89.30
34279;DHT22;20538;51.528;9.942;2023-04-06T12:51:27;12.40;89.60
34279;DHT22;20538;51.528;9.942;2023-04-06T12:53:53;12.60;89.40
34279;DHT22;20538;51.528;9.942;2023-04-06T12:56:35;12.70;89.10
34279;DHT22;20538;51.528;9.942;2023-04-06T12:59:35;12.60;86.10
34279;DHT22;20538;51.528;9.942;2023-04-06T13:02:22;12.40;86.60
34279;DHT22;20538;51.528;9.942;2023-04-06T13:05:13;12.50;87.00
34279;DHT22;20538;51.528;9.942;2023-04-06T13:07:44;12.70;86.70
34279;DHT22;20538;51.528;9.942;2023-04-06T13:10:11;12.70;86.80
34279;DHT22;20538;51.528;9.942;2023-04-06T13:12:37;12.60;84.90
34279;DHT22;20538;51.528;9.942;2023-04-06T13:15:03;12.50;85.80
34279;DHT22;20538;51.528;9.942;2023-04-06T13:17:30;12.70;86.40
34279;DHT22;20538;51.528;9.942;2023-04-06T13:19:55;12.70;86.60
34279;DHT22;20538;51.528;9.942;2023-04-06T13:22:21;12.70;85.60
34279;DHT22;20538;51.528;9.942;2023-04-06T13:24:59;12.80;86.80
34279;DHT22;20538;51.528;9.942;2023-04-06T13:27:25;12.70;85.30
34279;DHT22;20538;51.528;9.942;2023-04-06T13:29:55;12.80;86.10
34279;DHT22;20538;51.528;9.942;2023-04-06T13:32:21;12.90;85.80
34279;DHT22;20538;51.528;9.942;2023-04-06T13:34:47;13.00;86.40
34279;DHT22;20538;51.528;9.942;2023-04-06T13:37:17;13.00;85.40
34279;DHT22;20538;51.528;9.942;2023-04-06T13:39:45;13.10;85.90
34279;DHT22;20538;51.528;9.942;2023-04-06T13:42:10;13.10;85.50
34279;DHT22;20538;51.528;9.942;2023-04-06T13:44:36;13.10;85.20
34279;DHT22;20538;51.528;9.942;2023-04-06T13:47:02;13.10;84.30
34279;DHT22;20538;51.528;9.942;2023-04-06T13:49:29;13.10;84.60
34279;DHT22;20538;51.528;9.942;2023-04-06T13:51:55;13.00;83.30
34279;DHT22;20538;51.528;9.942;2023-04-06T13:54:26;12.80;84.60
34279;DHT22;20538;51.528;9.942;2023-04-06T13:56:52;12.60;84.20
34279;DHT22;20538;51.528;9.942;2023-04-06T13:59:18;12.70;84.40
34279;DHT22;20538;51.528;9.942;2023-04-06T14:01:43;12.70;83.60
34279;DHT22;20538;51.528;9.942;2023-04-06T14:04:09;12.90;85.10
34279;DHT22;20538;51.528;9.942;2023-04-06T14:06:37;13.10;84.70
34279;DHT22;20538;51.528;9.942;2023-04-06T14:09:03;13.30;84.90
34279;DHT22;20538;51.528;9.942;2023-04-06T14:11:29;13.20;84.50
34279;DHT22;20538;51.528;9.942;2023-04-06T14:13:55;13.20;85.60
34279;DHT22;20538;51.528;9.942;2023-04-06T14:16:23;13.20;85.90
34279;DHT22;20538;51.528;9.942;2023-04-06T14:18:49;13.10;84.10
34279;DHT22;20538;51.528;9.942;2023-04-06T14:21:16;13.00;85.10
34279;DHT22;20538;51.528;9.942;2023-04-06T14:23:41;12.90;85.60
34279;DHT22;20538;51.528;9.942;2023-04-06T14:26:10;12.70;85.50
34279;DHT22;20538;51.528;9.942;2023-04-06T14:28:37;12.80;85.40
34279;DHT22;20538;51.528;9.942;2023-04-06T14:31:10;12.80;82.60
34279;DHT22;20538;51.528;9.942;2023-04-06T14:33:37;13.00;84.90
34279;DHT22;20538;51.528;9.942;2023-04-06T14:36:04;13.20;85.00
34279;DHT22;20538;51.528;9.942;2023-04-06T14:38:31;13.20;86.10
34279;DHT22;20538;51.528;9.942;2023-04-06T14:40:58;13.30;84.40
34279;DHT22;20538;51.528;9.942;2023-04-06T14:43:23;13.40;84.10
34279;DHT22;20538;51.528;9.942;2023-04-06T14:45:51;13.30;82.60
34279;DHT22;20538;51.528;9.942;2023-04-06T14:48:18;13.10;82.40
34279;DHT22;20538;51.528;9.942;2023-04-06T14:50:55;13.00;82.90
34279;DHT22;20538;51.528;9.942;2023-04-06T14:53:23;13.00;83.50
34279;DHT22;20538;51.528;9.942;2023-04-06T14:55:49;12.90;84.00
34279;DHT22;20538;51.528;9.942;2023-04-06T14:58:18;12.90;84.40
34279;DHT22;20538;51.528;9.942;2023-04-06T15:00:44;13.00;85.00
34279;DHT22;20538;51.528;9.942;2023-04-06T15:03:10;13.10;84.20
34279;DHT22;20538;51.528;9.942;2023-04-06T15:05:36;13.10;84.10
34279;DHT22;20538;51.528;9.942;2023-04-06T15:08:02;13.00;82.90
34279;DHT22;20538;51.528;9.942;2023-04-06T15:10:32;13.10;83.70
34279;DHT22;20538;51.528;9.942;2023-04-06T15:12:58;13.10;82.70
34279;DHT22;20538;51.528;9.942;2023-04-06T15:15:24;13.30;83.80
34279;DHT22;20538;51.528;9.942;2023-04-06T15:17:50;13.40;82.80
34279;DHT22;20538;51.528;9.942;2023-04-06T15:20:16;13.40;81.90
34279;DHT22;20538;51.528;9.942;2023-04-06T15:22:41;13.30;82.50
34279;DHT22;20538;51.528;9.942;2023-04-06T15:25:07;13.40;83.00
34279;DHT22;20538;51.528;9.942;2023-04-06T15:27:33;13.50;83.10
34279;DHT22;20538;51.528;9.942;2023-04-06T15:29:59;13.50;83.90
34279;DHT22;20538;51.528;9.942;2023-04-06T15:32:25;13.60;83.70
34279;DHT22;20538;51.528;9.942;2023-04-06T15:35:14;13.80;83.40
34279;DHT22;20538;51.528;9.942;2023-04-06T15:37:40;13.90;83.40
34279;DHT22;20538;51.528;9.942;2023-04-06T15:40:06;14.00;83.20
34279;DHT22;20538;51.528;9.942;2023-04-06T15:42:32;14.00;83.20